createdAt,value
2023-03-21T00:01:03.646Z,6.43
2023-03-21T00:03:31.781Z,4.22
2023-03-21T00:05:59.463Z,3.45
2023-03-21T00:08:27.198Z,5.43
2023-03-21T00:10:58.551Z,3.78
2023-03-21T00:13:28.109Z,2.97
2023-03-21T00:16:17.696Z,3.28
2023-03-21T00:18:46.344Z,3.22
2023-03-21T00:21:43.979Z,3.40
2023-03-21T00:24:04.513Z,3.13
2023-03-21T00:26:32.339Z,5.13
2023-03-21T00:28:59.972Z,2.63
2023-03-21T00:31:27.569Z,5.05
2023-03-21T00:33:55.109Z,2.13
2023-03-21T00:36:25.910Z,3.60
2023-03-21T00:38:53.806Z,4.18
2023-03-21T00:41:38.745Z,2.97
2023-03-21T00:44:08.993Z,3.13
2023-03-21T00:46:46.946Z,2.70
2023-03-21T00:49:22.216Z,3.30
2023-03-21T00:51:54.947Z,4.78
2023-03-21T00:54:23.045Z,2.55
2023-03-21T00:56:50.813Z,3.40
2023-03-21T00:59:18.349Z,4.70
2023-03-21T01:01:46.683Z,4.00
2023-03-21T01:04:16.826Z,3.65
2023-03-21T01:06:45.186Z,3.80
2023-03-21T01:09:15.256Z,3.80
2023-03-21T01:11:43.316Z,3.05
2023-03-21T01:14:21.962Z,3.95
2023-03-21T01:16:51.083Z,3.33
2023-03-21T01:19:50.792Z,2.72
2023-03-21T01:22:07.512Z,3.25
2023-03-21T01:24:37.696Z,3.65
2023-03-21T01:27:05.903Z,2.78
2023-03-21T01:29:33.721Z,4.15
2023-03-21T01:32:01.317Z,2.67
2023-03-21T01:34:29.886Z,2.70
2023-03-21T01:36:57.501Z,3.75
2023-03-21T01:39:25.582Z,3.70
2023-03-21T01:41:53.171Z,4.25
2023-03-21T01:44:23.663Z,3.58
2023-03-21T01:47:07.649Z,3.25
2023-03-21T01:49:49.954Z,3.22
2023-03-21T01:52:37.582Z,2.97
2023-03-21T01:55:19.186Z,2.90
2023-03-21T01:58:07.149Z,4.88
2023-03-21T02:01:02.504Z,3.92
2023-03-21T02:03:49.867Z,4.50
2023-03-21T02:06:37.381Z,3.55
2023-03-21T02:09:22.615Z,3.92
2023-03-21T02:11:51.262Z,3.80
2023-03-21T02:14:28.875Z,3.85
2023-03-21T02:17:37.562Z,3.83
2023-03-21T02:20:17.335Z,5.25
2023-03-21T02:23:04.830Z,3.92
2023-03-21T02:25:42.031Z,3.05
2023-03-21T02:28:29.888Z,4.57
2023-03-21T02:31:16.650Z,3.70
2023-03-21T02:34:02.996Z,4.82
2023-03-21T02:36:33.673Z,4.18
2023-03-21T02:39:14.607Z,4.00
2023-03-21T02:41:48.316Z,2.97
2023-03-21T02:44:31.314Z,3.65
2023-03-21T02:47:06.492Z,4.95
2023-03-21T02:49:43.360Z,6.53
2023-03-21T02:52:28.292Z,3.65
2023-03-21T02:55:04.886Z,5.20
2023-03-21T02:57:43.249Z,4.28
2023-03-21T03:00:17.201Z,4.20
2023-03-21T03:02:48.862Z,4.63
2023-03-21T03:05:21.843Z,4.78
2023-03-21T03:08:11.124Z,3.42
2023-03-21T03:10:41.417Z,3.53
2023-03-21T03:13:16.943Z,3.92
2023-03-21T03:16:05.138Z,3.92
2023-03-21T03:18:32.780Z,4.22
2023-03-21T03:21:18.852Z,3.83
2023-03-21T03:23:51.445Z,4.13
2023-03-21T03:26:21.975Z,4.68
2023-03-21T03:28:52.377Z,5.25
2023-03-21T03:31:25.872Z,3.35
2023-03-21T03:34:00.511Z,4.05
2023-03-21T03:36:33.101Z,4.97
2023-03-21T03:39:09.234Z,4.55
2023-03-21T03:42:06.127Z,4.82
2023-03-21T03:44:34.426Z,7.25
2023-03-21T03:49:59.658Z,3.72
2023-03-21T03:52:30.197Z,7.38
2023-03-21T03:55:03.899Z,4.07
2023-03-21T03:57:36.250Z,4.25
2023-03-21T04:00:11.661Z,5.18
2023-03-21T04:02:45.997Z,4.22
2023-03-21T04:05:21.055Z,3.92
2023-03-21T04:07:50.836Z,4.85
2023-03-21T04:10:21.864Z,5.03
2023-03-21T04:12:49.997Z,5.53
2023-03-21T04:15:23.270Z,5.18
2023-03-21T04:17:56.376Z,6.05
2023-03-21T04:20:36.061Z,4.20
2023-03-21T04:23:06.055Z,3.27
2023-03-21T04:25:44.660Z,4.80
2023-03-21T04:28:15.409Z,5.55
2023-03-21T04:31:15.953Z,4.15
2023-03-21T04:33:51.868Z,5.40
2023-03-21T04:36:27.726Z,6.60
2023-03-21T04:39:01.783Z,5.32
2023-03-21T04:41:31.032Z,4.07
2023-03-21T04:43:58.596Z,7.78
2023-03-21T04:46:26.507Z,4.15
2023-03-21T04:48:54.189Z,5.93
2023-03-21T04:51:21.821Z,3.42
2023-03-21T04:53:52.405Z,3.90
2023-03-21T04:56:20.362Z,4.07
2023-03-21T04:58:47.995Z,6.85
2023-03-21T05:01:20.040Z,4.75
2023-03-21T05:03:48.782Z,4.22
2023-03-21T05:06:16.617Z,4.78
2023-03-21T05:08:44.288Z,4.22
2023-03-21T05:11:13.236Z,4.97
2023-03-21T05:13:41.437Z,4.15
2023-03-21T05:16:09.534Z,4.60
2023-03-21T05:18:38.668Z,3.55
2023-03-21T05:21:13.430Z,4.68
2023-03-21T05:23:41.579Z,4.18
2023-03-21T05:26:10.012Z,3.20
2023-03-21T05:28:44.487Z,5.97
2023-03-21T05:31:15.710Z,5.00
2023-03-21T05:36:12.702Z,4.38
2023-03-21T05:38:46.019Z,4.32
2023-03-21T05:41:15.398Z,4.13
2023-03-21T05:43:43.313Z,5.30
2023-03-21T05:46:12.286Z,5.03
2023-03-21T05:48:40.230Z,4.85
2023-03-21T05:51:15.422Z,3.45
2023-03-21T05:53:42.968Z,4.25
2023-03-21T05:56:11.581Z,4.30
2023-03-21T05:58:45.331Z,5.03
2023-03-21T06:01:13.521Z,4.50
2023-03-21T06:03:45.802Z,5.05
2023-03-21T06:06:17.184Z,3.92
2023-03-21T06:08:52.988Z,5.47
2023-03-21T06:11:27.363Z,4.10
2023-03-21T06:14:13.443Z,5.22
2023-03-21T06:16:42.148Z,5.13
2023-03-21T06:19:09.828Z,4.97
2023-03-21T06:21:45.465Z,5.20
2023-03-21T06:24:13.192Z,4.15
2023-03-21T06:26:43.307Z,4.97
2023-03-21T06:29:11.270Z,4.53
2023-03-21T06:31:38.910Z,3.35
2023-03-21T06:34:06.758Z,5.63
2023-03-21T06:36:34.517Z,6.57
2023-03-21T06:39:02.384Z,6.53
2023-03-21T06:41:30.206Z,5.35
2023-03-21T06:44:03.235Z,5.00
2023-03-21T06:46:34.814Z,4.88
2023-03-21T06:49:02.744Z,9.88
2023-03-21T06:51:30.997Z,5.32
2023-03-21T06:54:14.600Z,5.97
2023-03-21T06:56:48.591Z,4.53
2023-03-21T06:59:23.476Z,5.47
2023-03-21T07:01:55.720Z,5.22
2023-03-21T07:04:23.434Z,9.88
2023-03-21T07:06:51.775Z,7.70
2023-03-21T07:09:24.532Z,5.28
2023-03-21T07:11:54.206Z,7.47
2023-03-21T07:16:53.466Z,7.43
2023-03-21T07:19:21.042Z,8.13
2023-03-21T07:21:49.065Z,5.50
2023-03-21T07:24:16.573Z,6.25
2023-03-21T07:26:44.177Z,7.65
2023-03-21T07:29:11.715Z,4.45
2023-03-21T07:31:40.520Z,5.32
2023-03-21T07:34:08.175Z,5.10
2023-03-21T07:36:36.869Z,4.43
2023-03-21T07:39:04.636Z,7.80
2023-03-21T07:41:32.376Z,7.30
2023-03-21T07:44:11.946Z,16.55
2023-03-21T07:46:39.535Z,6.80
2023-03-21T07:49:08.756Z,10.80
2023-03-21T07:51:36.612Z,6.22
2023-03-21T07:54:04.340Z,6.72
2023-03-21T07:56:31.932Z,5.68
2023-03-21T07:58:59.594Z,6.28
2023-03-21T08:01:27.271Z,6.07
2023-03-21T08:03:54.935Z,5.38
2023-03-21T08:06:22.820Z,5.00
2023-03-21T08:08:50.381Z,11.13
2023-03-21T08:11:18.641Z,5.28
2023-03-21T08:13:46.251Z,5.05
2023-03-21T08:16:14.014Z,5.47
2023-03-21T08:18:42.667Z,4.88
2023-03-21T08:21:10.585Z,4.80
2023-03-21T08:23:38.153Z,5.45
2023-03-21T08:26:05.823Z,9.43
2023-03-21T08:28:33.364Z,8.35
2023-03-21T08:31:00.986Z,5.40
2023-03-21T08:33:28.587Z,5.55
2023-03-21T08:35:56.143Z,6.63
2023-03-21T08:38:23.710Z,6.32
2023-03-21T08:40:51.615Z,5.40
2023-03-21T08:43:19.177Z,6.40
2023-03-21T08:45:46.760Z,8.63
2023-03-21T08:48:14.408Z,5.15
2023-03-21T08:50:42.077Z,6.90
2023-03-21T08:53:09.661Z,4.78
2023-03-21T08:55:37.783Z,5.10
2023-03-21T08:58:06.623Z,4.55
2023-03-21T09:00:34.211Z,5.22
2023-03-21T09:03:01.851Z,7.35
2023-03-21T09:05:29.594Z,5.97
2023-03-21T09:07:57.618Z,5.47
2023-03-21T09:10:25.369Z,4.78
2023-03-21T09:12:54.247Z,6.57
2023-03-21T09:15:24.254Z,8.68
2023-03-21T09:17:56.995Z,5.85
2023-03-21T09:20:32.867Z,5.80
2023-03-21T09:23:01.616Z,6.65
2023-03-21T09:25:32.576Z,5.28
2023-03-21T09:28:01.979Z,6.07
2023-03-21T09:30:29.958Z,6.65
2023-03-21T09:32:59.497Z,6.45
2023-03-21T09:35:28.174Z,5.47
2023-03-21T09:37:59.388Z,5.93
2023-03-21T09:40:27.277Z,5.43
2023-03-21T09:43:13.386Z,5.97
2023-03-21T09:45:48.036Z,5.47
2023-03-21T09:48:31.196Z,6.68
2023-03-21T09:50:59.009Z,6.78
2023-03-21T09:53:30.602Z,8.27
2023-03-21T09:55:59.586Z,4.43
2023-03-21T09:58:30.979Z,4.35
2023-03-21T10:01:11.058Z,3.97
2023-03-21T10:03:38.784Z,4.47
2023-03-21T10:06:12.767Z,7.07
2023-03-21T10:08:41.861Z,6.68
2023-03-21T10:11:14.434Z,3.67
2023-03-21T10:13:44.977Z,3.63
2023-03-21T10:16:16.577Z,4.50
2023-03-21T10:18:46.672Z,4.40
2023-03-21T10:21:43.095Z,3.10
2023-03-21T10:24:12.247Z,4.57
2023-03-21T10:26:40.142Z,4.85
2023-03-21T10:29:07.892Z,7.28
2023-03-21T10:31:35.855Z,6.57
2023-03-21T10:34:07.065Z,3.20
2023-03-21T10:36:36.034Z,4.80
2023-03-21T10:39:05.230Z,5.07
2023-03-21T10:41:33.547Z,3.50
2023-03-21T10:44:15.268Z,6.40
2023-03-21T10:46:59.289Z,5.18
2023-03-21T10:49:27.546Z,3.35
2023-03-21T10:51:57.688Z,5.63
2023-03-21T10:54:28.910Z,7.38
2023-03-21T10:57:01.489Z,3.85
2023-03-21T10:59:34.446Z,3.10
2023-03-21T11:02:04.127Z,4.25
2023-03-21T11:04:31.816Z,3.50
2023-03-21T11:07:01.209Z,5.00
2023-03-21T11:09:44.464Z,9.63
2023-03-21T11:12:13.574Z,3.30
2023-03-21T11:14:42.622Z,4.53
2023-03-21T11:17:19.573Z,3.50
2023-03-21T11:19:51.238Z,3.85
2023-03-21T11:22:21.997Z,6.03
2023-03-21T11:24:53.940Z,3.75
2023-03-21T11:27:21.798Z,3.70
2023-03-21T11:29:52.478Z,2.80
2023-03-21T11:32:21.238Z,4.43
2023-03-21T11:34:55.052Z,5.35
2023-03-21T11:37:27.318Z,2.97
2023-03-21T11:40:06.694Z,3.78
2023-03-21T11:42:40.494Z,2.40
2023-03-21T11:45:18.923Z,3.00
2023-03-21T11:47:47.735Z,2.30
2023-03-21T11:50:24.730Z,2.65
2023-03-21T11:52:59.020Z,3.53
2023-03-21T11:55:42.001Z,4.10
2023-03-21T11:58:15.782Z,2.42
2023-03-21T12:00:43.289Z,2.17
2023-03-21T12:03:41.504Z,2.45
2023-03-21T12:06:19.074Z,2.00
2023-03-21T12:09:04.106Z,2.80
2023-03-21T12:11:46.721Z,2.45
2023-03-21T12:14:20.675Z,3.38
2023-03-21T12:16:51.144Z,3.60
2023-03-21T12:19:24.084Z,2.83
2023-03-21T12:22:01.517Z,1.90
2023-03-21T12:24:41.429Z,1.65
2023-03-21T12:27:41.951Z,1.60
2023-03-21T12:30:15.373Z,1.90
2023-03-21T12:32:52.195Z,1.55
2023-03-21T12:35:38.734Z,2.35
2023-03-21T12:38:11.314Z,2.63
2023-03-21T12:40:54.259Z,2.03
2023-03-21T12:43:40.160Z,2.42
2023-03-21T12:46:30.868Z,2.90
2023-03-21T12:49:02.615Z,1.90
2023-03-21T12:51:32.735Z,2.15
2023-03-21T12:54:09.396Z,2.92
2023-03-21T12:56:50.255Z,2.13
2023-03-21T12:59:27.963Z,6.18
2023-03-21T13:01:56.873Z,2.60
2023-03-21T13:04:37.386Z,4.15
2023-03-21T13:07:08.470Z,3.55
2023-03-21T13:09:40.852Z,6.07
2023-03-21T13:12:20.216Z,2.47
2023-03-21T13:15:01.709Z,3.65
2023-03-21T13:17:37.640Z,2.33
2023-03-21T13:20:25.581Z,4.53
2023-03-21T13:22:53.139Z,4.20
2023-03-21T13:25:21.973Z,2.38
2023-03-21T13:28:01.200Z,4.15
2023-03-21T13:30:30.233Z,2.30
2023-03-21T13:33:08.536Z,3.47
2023-03-21T13:35:42.427Z,5.03
2023-03-21T13:38:16.350Z,3.90
2023-03-21T13:40:45.931Z,3.63
2023-03-21T13:43:31.985Z,2.75
2023-03-21T13:46:06.894Z,5.15
2023-03-21T13:48:58.800Z,2.63
2023-03-21T13:51:30.164Z,2.03
2023-03-21T13:54:21.680Z,3.00
2023-03-21T13:56:50.820Z,2.90
2023-03-21T13:59:33.462Z,2.50
2023-03-21T14:02:13.068Z,2.63
2023-03-21T14:04:53.693Z,3.50
2023-03-21T14:07:29.091Z,3.25
2023-03-21T14:09:59.586Z,4.32
2023-03-21T14:12:29.408Z,4.95
2023-03-21T14:15:14.093Z,3.13
2023-03-21T14:17:50.320Z,5.50
2023-03-21T14:20:28.803Z,2.58
2023-03-21T14:22:56.426Z,4.57
2023-03-21T14:25:29.237Z,2.97
2023-03-21T14:28:01.117Z,2.13
2023-03-21T14:30:31.276Z,2.10
2023-03-21T14:32:59.806Z,4.13
2023-03-21T14:35:31.176Z,3.30
2023-03-21T14:38:02.488Z,2.42
2023-03-21T14:40:30.172Z,3.58
2023-03-21T14:42:58.648Z,2.75
2023-03-21T14:45:27.458Z,2.25
2023-03-21T14:47:59.052Z,2.15
2023-03-21T14:50:35.749Z,4.03
2023-03-21T14:53:03.818Z,2.92
2023-03-21T14:55:32.020Z,2.80
2023-03-21T14:57:59.828Z,3.67
2023-03-21T15:00:29.146Z,1.92
2023-03-21T15:02:58.618Z,3.30
2023-03-21T15:05:28.527Z,3.10
2023-03-21T15:08:03.255Z,5.35
2023-03-21T15:10:31.841Z,3.00
2023-03-21T15:13:11.693Z,1.88
2023-03-21T15:15:39.790Z,2.33
2023-03-21T15:18:07.818Z,3.90
2023-03-21T15:20:37.510Z,3.17
2023-03-21T15:23:09.048Z,4.28
2023-03-21T15:25:37.724Z,4.63
2023-03-21T15:28:06.705Z,2.40
2023-03-21T15:30:35.063Z,4.93
2023-03-21T15:33:07.493Z,2.70
2023-03-21T15:35:42.918Z,6.90
2023-03-21T15:38:22.549Z,3.47
2023-03-21T15:40:50.160Z,4.25
2023-03-21T15:43:19.294Z,2.58
2023-03-21T15:45:54.534Z,2.80
2023-03-21T15:48:23.207Z,4.18
2023-03-21T15:51:04.565Z,5.85
2023-03-21T15:53:33.400Z,4.43
2023-03-21T15:56:04.022Z,5.38
2023-03-21T15:58:41.358Z,3.80
2023-03-21T16:01:13.509Z,3.92
2023-03-21T16:03:45.776Z,3.88
2023-03-21T16:06:16.542Z,4.35
2023-03-21T16:08:44.635Z,9.23
2023-03-21T16:11:24.762Z,3.08
2023-03-21T16:13:53.155Z,3.90
2023-03-21T16:16:22.363Z,4.38
2023-03-21T16:18:51.544Z,5.15
2023-03-21T16:21:20.652Z,4.78
2023-03-21T16:23:48.684Z,5.20
2023-03-21T16:26:18.453Z,4.35
2023-03-21T16:28:46.379Z,3.60
2023-03-21T16:31:15.112Z,7.18
2023-03-21T16:33:42.881Z,6.13
2023-03-21T16:36:13.579Z,3.53
2023-03-21T16:38:41.146Z,6.22
2023-03-21T16:41:12.612Z,4.95
2023-03-21T16:43:43.157Z,4.93
2023-03-21T16:46:14.759Z,4.88
2023-03-21T16:48:43.686Z,5.22
2023-03-21T16:51:18.527Z,5.05
2023-03-21T16:53:46.553Z,3.88
2023-03-21T16:56:34.533Z,3.90
2023-03-21T16:59:02.198Z,4.82
2023-03-21T17:01:30.654Z,4.75
2023-03-21T17:03:58.366Z,9.52
2023-03-21T17:06:27.372Z,7.43
2023-03-21T17:08:55.705Z,4.65
2023-03-21T17:11:24.487Z,7.93
2023-03-21T17:13:54.248Z,8.02
2023-03-21T17:16:26.088Z,7.63
2023-03-21T17:18:54.540Z,8.57
2023-03-21T17:21:23.287Z,8.85
2023-03-21T17:23:51.037Z,6.85
2023-03-21T17:26:26.790Z,7.25
2023-03-21T17:28:55.560Z,8.65
2023-03-21T17:31:24.288Z,7.18
2023-03-21T17:33:52.079Z,10.63
2023-03-21T17:36:21.288Z,6.18
2023-03-21T17:38:49.426Z,5.53
2023-03-21T17:41:18.437Z,5.72
2023-03-21T17:43:47.245Z,16.05
2023-03-21T17:46:15.909Z,5.90
2023-03-21T17:48:44.114Z,5.47
2023-03-21T17:51:14.114Z,5.22
2023-03-21T17:53:42.138Z,4.40
2023-03-21T17:56:17.272Z,9.30
2023-03-21T17:58:44.869Z,6.93
2023-03-21T18:01:12.428Z,6.70
2023-03-21T18:03:40.057Z,3.53
2023-03-21T18:06:07.961Z,3.80
2023-03-21T18:08:35.747Z,2.97
2023-03-21T18:11:03.371Z,4.63
2023-03-21T18:13:31.124Z,4.38
2023-03-21T18:15:59.810Z,6.88
2023-03-21T18:18:27.619Z,4.15
2023-03-21T18:20:57.939Z,4.32
2023-03-21T18:23:26.294Z,7.55
2023-03-21T18:25:54.223Z,4.35
2023-03-21T18:28:22.349Z,5.47
2023-03-21T18:31:07.401Z,3.92
2023-03-21T18:33:40.085Z,5.80
2023-03-21T18:36:08.881Z,5.80
2023-03-21T18:38:37.611Z,9.43
2023-03-21T18:41:05.744Z,8.13
2023-03-21T18:46:21.025Z,6.28
2023-03-21T18:48:49.226Z,9.48
2023-03-21T18:51:19.150Z,6.70
2023-03-21T18:53:46.972Z,4.70
2023-03-21T18:56:57.632Z,5.43
2023-03-21T18:59:03.021Z,4.72
2023-03-21T19:01:32.737Z,6.03
2023-03-21T19:06:50.068Z,10.13
2023-03-21T19:09:18.611Z,5.15
2023-03-21T19:11:46.471Z,7.15
2023-03-21T19:14:14.921Z,9.25
2023-03-21T19:17:23.189Z,9.25
2023-03-21T19:19:31.105Z,7.85
2023-03-21T19:21:58.788Z,9.00
2023-03-21T19:24:28.905Z,7.13
2023-03-21T19:26:56.985Z,6.10
2023-03-21T19:29:25.638Z,7.55
2023-03-21T19:31:54.656Z,7.43
2023-03-21T19:34:22.240Z,6.43
2023-03-21T19:36:51.888Z,6.10
2023-03-21T19:39:22.279Z,8.23
2023-03-21T19:41:51.064Z,6.95
2023-03-21T19:44:19.494Z,9.85
2023-03-21T19:46:48.384Z,8.65
2023-03-21T19:49:22.160Z,6.78
2023-03-21T19:51:52.015Z,9.52
2023-03-21T19:54:19.580Z,8.15
2023-03-21T19:56:48.252Z,6.40
2023-03-21T19:59:17.126Z,9.25
2023-03-21T20:01:45.775Z,12.18
2023-03-21T20:04:14.665Z,6.03
2023-03-21T20:06:42.189Z,8.23
2023-03-21T20:09:49.507Z,9.77
2023-03-21T20:12:00.436Z,10.43
2023-03-21T20:14:28.117Z,7.55
2023-03-21T20:16:57.107Z,10.88
2023-03-21T20:19:24.935Z,8.65
2023-03-21T20:21:58.798Z,8.07
2023-03-21T20:24:29.114Z,7.68
2023-03-21T20:26:57.312Z,8.20
2023-03-21T20:32:14.154Z,7.93
2023-03-21T20:34:44.302Z,8.43
2023-03-21T20:37:12.824Z,7.35
2023-03-21T20:39:40.538Z,6.88
2023-03-21T20:42:08.165Z,7.50
2023-03-21T20:44:58.806Z,6.80
2023-03-21T20:47:25.569Z,12.10
2023-03-21T20:49:54.238Z,10.48
2023-03-21T20:55:11.410Z,10.02
2023-03-21T20:57:40.256Z,8.35
2023-03-21T21:00:13.485Z,12.13
2023-03-21T21:02:42.058Z,16.08
2023-03-21T21:05:25.331Z,10.82
2023-03-21T21:07:56.373Z,11.40
2023-03-21T21:10:24.003Z,9.73
2023-03-21T21:12:51.769Z,11.65
2023-03-21T21:15:19.476Z,10.57
2023-03-21T21:18:04.763Z,9.43
2023-03-21T21:20:34.199Z,9.77
2023-03-21T21:23:01.785Z,12.15
2023-03-21T21:25:31.895Z,10.77
2023-03-21T21:28:01.762Z,12.60
2023-03-21T21:30:29.515Z,8.57
2023-03-21T21:33:00.580Z,8.55
2023-03-21T21:35:28.282Z,10.13
2023-03-21T21:37:55.941Z,9.90
2023-03-21T21:40:24.145Z,8.60
2023-03-21T21:42:52.079Z,5.82
2023-03-21T21:45:20.084Z,6.88
2023-03-21T21:47:47.721Z,7.70
2023-03-21T21:50:15.358Z,6.28
2023-03-21T21:52:43.942Z,5.45
2023-03-21T21:55:12.998Z,8.27
2023-03-21T21:57:40.887Z,6.10
2023-03-21T22:00:13.342Z,8.05
2023-03-21T22:02:42.057Z,6.53
2023-03-21T22:05:10.462Z,10.00
2023-03-21T22:07:38.948Z,7.45
2023-03-21T22:10:06.829Z,7.03
2023-03-21T22:12:34.822Z,9.30
2023-03-21T22:15:02.787Z,6.13
2023-03-21T22:17:30.704Z,6.72
2023-03-21T22:20:05.478Z,8.55
2023-03-21T22:22:34.121Z,5.50
2023-03-21T22:25:01.666Z,6.20
2023-03-21T22:27:29.251Z,6.53
2023-03-21T22:29:56.807Z,8.77
2023-03-21T22:32:24.489Z,6.47
2023-03-21T22:34:52.106Z,7.45
2023-03-21T22:37:19.650Z,5.28
2023-03-21T22:39:47.184Z,7.80
2023-03-21T22:42:14.718Z,7.43
2023-03-21T22:44:42.278Z,7.03
2023-03-21T22:47:10.853Z,12.60
2023-03-21T22:49:38.932Z,7.28
2023-03-21T22:52:07.021Z,6.65
2023-03-21T22:54:34.697Z,7.20
2023-03-21T22:57:02.268Z,6.93
2023-03-21T22:59:29.920Z,7.47
2023-03-21T23:01:57.573Z,6.95
2023-03-21T23:04:26.622Z,7.38
2023-03-21T23:06:54.804Z,7.55
2023-03-21T23:09:22.422Z,7.63
2023-03-21T23:11:50.184Z,7.40
2023-03-21T23:14:20.018Z,8.40
2023-03-21T23:16:52.581Z,7.13
2023-03-21T23:19:21.120Z,7.80
2023-03-21T23:21:48.973Z,7.45
2023-03-21T23:24:16.629Z,7.32
2023-03-21T23:26:44.220Z,7.47
2023-03-21T23:29:12.096Z,7.38
2023-03-21T23:31:39.706Z,5.88
2023-03-21T23:34:07.268Z,5.95
2023-03-21T23:36:34.885Z,7.70
2023-03-21T23:39:02.433Z,10.38
2023-03-21T23:41:30.030Z,6.43
2023-03-21T23:43:57.590Z,6.50
2023-03-21T23:46:25.227Z,8.65
2023-03-21T23:48:52.882Z,7.60
2023-03-21T23:51:20.493Z,7.75
2023-03-21T23:53:48.531Z,8.50
2023-03-21T23:56:17.762Z,8.13
2023-03-21T23:58:45.521Z,11.30
